createdAt,value
2023-04-30T00:00:15.191Z,18.9170
2023-04-30T00:01:17.526Z,18.9374
2023-04-30T00:02:19.882Z,18.9600
2023-04-30T00:03:22.243Z,18.8387
2023-04-30T00:04:24.690Z,18.7573
2023-04-30T00:05:27.056Z,18.7353
2023-04-30T00:06:29.216Z,18.7578
2023-04-30T00:07:31.551Z,18.7570
2023-04-30T00:08:33.849Z,18.7412
2023-04-30T00:09:36.280Z,18.6277
2023-04-30T00:10:38.536Z,18.5807
2023-04-30T00:11:40.879Z,18.6394
2023-04-30T00:12:43.227Z,18.6386
2023-04-30T00:13:45.532Z,18.5827
2023-04-30T00:14:47.882Z,18.6175
2023-04-30T00:15:50.210Z,18.6191
2023-04-30T00:16:52.573Z,18.6871
2023-04-30T00:17:54.973Z,18.6967
2023-04-30T00:18:57.301Z,18.7786
2023-04-30T00:19:59.574Z,18.7979
2023-04-30T00:21:01.897Z,18.8345
2023-04-30T00:22:04.320Z,18.9136
2023-04-30T00:23:06.595Z,18.9432
2023-04-30T00:24:08.925Z,18.9619
2023-04-30T00:25:11.258Z,18.8629
2023-04-30T00:26:13.583Z,18.8026
2023-04-30T00:27:15.981Z,18.8711
2023-04-30T00:28:18.267Z,18.8587
2023-04-30T00:29:20.601Z,18.8257
2023-04-30T00:30:22.936Z,18.6820
2023-04-30T00:31:25.351Z,18.6094
2023-04-30T00:32:27.680Z,18.5325
2023-04-30T00:33:29.963Z,18.5028
2023-04-30T00:34:32.334Z,18.4659
2023-04-30T00:35:34.608Z,18.5742
2023-04-30T00:36:37.049Z,18.5474
2023-04-30T00:37:39.324Z,18.5168
2023-04-30T00:38:41.683Z,18.5470
2023-04-30T00:39:44.008Z,18.5178
2023-04-30T00:40:46.294Z,18.5675
2023-04-30T00:41:48.807Z,18.5136
2023-04-30T00:42:50.980Z,18.5545
2023-04-30T00:43:53.310Z,18.5650
2023-04-30T00:44:55.671Z,18.5523
2023-04-30T00:45:58.031Z,18.5304
2023-04-30T00:47:00.386Z,18.5149
2023-04-30T00:48:02.771Z,18.4705
2023-04-30T00:49:05.096Z,18.5826
2023-04-30T00:50:07.400Z,18.5877
2023-04-30T00:51:09.672Z,18.5989
2023-04-30T00:52:12.044Z,18.7364
2023-04-30T00:53:14.356Z,18.8252
2023-04-30T00:54:16.728Z,18.8746
2023-04-30T00:55:19.054Z,18.8873
2023-04-30T00:56:21.411Z,18.8535
2023-04-30T00:57:23.719Z,18.7870
2023-04-30T00:58:26.102Z,18.7500
2023-04-30T00:59:28.387Z,18.7789
2023-04-30T01:00:30.811Z,18.8022
2023-04-30T01:01:33.177Z,18.7134
2023-04-30T01:02:35.490Z,18.6483
2023-04-30T01:03:37.810Z,18.6039
2023-04-30T01:04:40.084Z,18.6048
2023-04-30T01:05:42.483Z,18.6081
2023-04-30T01:06:44.875Z,18.5145
2023-04-30T01:07:47.125Z,18.4819
2023-04-30T01:08:49.485Z,18.5057
2023-04-30T01:09:51.962Z,18.4715
2023-04-30T01:10:54.156Z,18.4210
2023-04-30T01:11:56.473Z,18.4925
2023-04-30T01:12:58.787Z,18.5485
2023-04-30T01:14:01.142Z,18.6267
2023-04-30T01:15:03.453Z,18.5882
2023-04-30T01:16:05.817Z,18.5692
2023-04-30T01:17:08.146Z,18.6165
2023-04-30T01:18:10.559Z,18.6446
2023-04-30T01:19:12.909Z,18.5862
2023-04-30T01:20:15.189Z,18.5535
2023-04-30T01:21:17.518Z,18.4714
2023-04-30T01:22:19.821Z,18.5337
2023-04-30T01:23:22.188Z,18.5465
2023-04-30T01:24:24.499Z,18.4760
2023-04-30T01:25:26.846Z,18.5306
2023-04-30T01:26:29.193Z,18.5669
2023-04-30T01:27:31.504Z,18.5894
2023-04-30T01:28:33.850Z,18.5680
2023-04-30T01:29:36.185Z,18.4592
2023-04-30T01:30:38.544Z,18.3690
2023-04-30T01:31:40.925Z,18.3953
2023-04-30T01:32:43.229Z,18.4354
2023-04-30T01:33:45.692Z,18.4991
2023-04-30T01:34:47.966Z,18.4891
2023-04-30T01:35:50.251Z,18.3996
2023-04-30T01:36:52.706Z,18.3902
2023-04-30T01:37:54.909Z,18.4382
2023-04-30T01:38:57.219Z,18.5731
2023-04-30T01:39:59.589Z,18.5202
2023-04-30T01:41:01.914Z,18.4726
2023-04-30T01:42:04.247Z,18.3645
2023-04-30T01:43:06.604Z,18.2918
2023-04-30T01:44:08.927Z,18.3730
2023-04-30T01:45:11.280Z,18.4156
2023-04-30T01:46:13.659Z,18.4258
2023-04-30T01:47:16.070Z,18.4852
2023-04-30T01:48:18.376Z,18.5073
2023-04-30T01:49:20.621Z,18.4490
2023-04-30T01:50:22.995Z,18.4404
2023-04-30T01:51:25.284Z,18.4446
2023-04-30T01:52:27.653Z,18.4564
2023-04-30T01:53:29.988Z,18.5511
2023-04-30T01:54:32.315Z,18.4979
2023-04-30T01:55:34.700Z,18.4052
2023-04-30T01:56:37.095Z,18.4224
2023-04-30T01:57:39.368Z,18.4735
2023-04-30T01:58:41.737Z,18.4761
2023-04-30T01:59:44.111Z,18.3892
2023-04-30T02:00:46.380Z,18.3477
2023-04-30T02:01:48.776Z,18.3334
2023-04-30T02:02:58.755Z,18.4380
2023-04-30T02:03:53.540Z,18.4267
2023-04-30T02:04:55.745Z,18.3070
2023-04-30T02:05:58.127Z,18.2326
2023-04-30T02:07:00.439Z,18.2165
2023-04-30T02:08:02.783Z,18.2140
2023-04-30T02:09:05.170Z,18.2163
2023-04-30T02:10:07.466Z,18.1583
2023-04-30T02:11:09.794Z,18.1274
2023-04-30T02:12:12.133Z,18.2403
2023-04-30T02:13:14.463Z,18.3558
2023-04-30T02:14:16.821Z,18.3663
2023-04-30T02:15:19.251Z,18.3715
2023-04-30T02:16:21.519Z,18.3403
2023-04-30T02:17:23.858Z,18.2951
2023-04-30T02:18:26.163Z,18.3550
2023-04-30T02:19:28.557Z,18.2718
2023-04-30T02:20:30.855Z,18.2581
2023-04-30T02:21:33.195Z,18.3034
2023-04-30T02:22:35.542Z,18.3084
2023-04-30T02:23:37.870Z,18.3129
2023-04-30T02:24:40.268Z,18.2422
2023-04-30T02:25:42.544Z,18.2246
2023-04-30T02:26:44.920Z,18.1275
2023-04-30T02:27:47.252Z,17.9664
2023-04-30T02:28:49.589Z,17.9761
2023-04-30T02:29:52.146Z,18.0651
2023-04-30T02:30:54.245Z,18.1034
2023-04-30T02:31:56.732Z,18.1675
2023-04-30T02:32:58.966Z,18.1625
2023-04-30T02:34:01.279Z,18.1348
2023-04-30T02:35:03.632Z,18.1492
2023-04-30T02:36:05.957Z,18.1558
2023-04-30T02:37:08.329Z,18.1239
2023-04-30T02:38:10.657Z,18.0898
2023-04-30T02:39:12.992Z,18.0986
2023-04-30T02:40:15.306Z,18.2288
2023-04-30T02:41:17.662Z,18.2619
2023-04-30T02:42:20.013Z,18.3223
2023-04-30T02:43:22.327Z,18.3072
2023-04-30T02:44:24.693Z,18.2950
2023-04-30T02:45:27.017Z,18.3344
2023-04-30T02:46:29.488Z,18.2703
2023-04-30T02:47:31.699Z,18.3533
2023-04-30T02:48:34.088Z,18.3682
2023-04-30T02:49:36.417Z,18.3088
2023-04-30T02:50:38.717Z,18.3287
2023-04-30T02:51:41.093Z,18.3510
2023-04-30T02:52:43.465Z,18.2805
2023-04-30T02:53:45.732Z,18.2063
2023-04-30T02:54:48.100Z,18.1925
2023-04-30T02:55:50.429Z,18.1669
2023-04-30T02:56:52.783Z,18.2167
2023-04-30T02:57:55.114Z,18.2114
2023-04-30T02:58:57.465Z,18.2205
2023-04-30T02:59:59.775Z,18.2377
2023-04-30T03:01:02.165Z,18.2664
2023-04-30T03:02:04.552Z,18.3340
2023-04-30T03:03:06.982Z,18.2843
2023-04-30T03:04:09.154Z,18.2536
2023-04-30T03:05:11.497Z,18.2140
2023-04-30T03:06:13.867Z,18.1390
2023-04-30T03:07:16.194Z,18.2220
2023-04-30T03:08:18.663Z,18.1873
2023-04-30T03:09:20.854Z,18.2495
2023-04-30T03:10:23.210Z,18.2510
2023-04-30T03:11:25.583Z,18.3146
2023-04-30T03:12:27.903Z,18.2730
2023-04-30T03:13:30.238Z,18.3055
2023-04-30T03:14:32.569Z,18.3502
2023-04-30T03:15:34.916Z,18.4038
2023-04-30T03:16:37.267Z,18.4382
2023-04-30T03:17:39.639Z,18.4787
2023-04-30T03:18:41.927Z,18.4104
2023-04-30T03:19:44.311Z,18.4252
2023-04-30T03:20:46.669Z,18.4238
2023-04-30T03:21:49.002Z,18.3634
2023-04-30T03:22:51.334Z,18.2933
2023-04-30T03:23:53.641Z,18.2767
2023-04-30T03:24:56.021Z,18.3051
2023-04-30T03:25:58.333Z,18.2597
2023-04-30T03:27:00.719Z,18.2424
2023-04-30T03:28:03.068Z,18.1444
2023-04-30T03:29:05.393Z,18.1020
2023-04-30T03:30:07.756Z,18.1077
2023-04-30T03:31:10.100Z,18.0744
2023-04-30T03:32:12.409Z,18.1595
2023-04-30T03:33:14.757Z,18.1881
2023-04-30T03:34:17.060Z,18.1895
2023-04-30T03:35:19.425Z,18.1089
2023-04-30T03:36:21.741Z,18.0043
2023-04-30T03:37:24.090Z,17.9736
2023-04-30T03:38:26.433Z,18.0556
2023-04-30T03:39:28.760Z,18.0516
2023-04-30T03:40:31.116Z,18.0429
2023-04-30T03:41:33.469Z,18.0556
2023-04-30T03:42:35.779Z,18.0915
2023-04-30T03:43:38.255Z,18.2006
2023-04-30T03:44:40.472Z,18.2338
2023-04-30T03:45:42.914Z,18.2290
2023-04-30T03:46:45.442Z,18.2536
2023-04-30T03:47:47.507Z,18.2172
2023-04-30T03:48:49.837Z,18.1647
2023-04-30T03:49:52.388Z,18.1382
2023-04-30T03:50:54.524Z,18.0599
2023-04-30T03:51:56.861Z,17.9427
2023-04-30T03:52:59.196Z,17.8521
2023-04-30T03:54:01.554Z,17.7231
2023-04-30T03:55:03.891Z,17.6908
2023-04-30T03:56:06.179Z,17.7455
2023-04-30T03:57:08.558Z,17.8325
2023-04-30T03:58:10.875Z,17.8645
2023-04-30T03:59:13.241Z,17.8801
2023-04-30T04:00:15.563Z,17.9047
2023-04-30T04:01:17.937Z,17.8891
2023-04-30T04:02:20.295Z,17.8848
2023-04-30T04:03:22.575Z,17.9857
2023-04-30T04:04:24.962Z,18.0498
2023-04-30T04:05:27.309Z,18.0927
2023-04-30T04:06:29.657Z,18.1543
2023-04-30T04:07:31.950Z,18.1517
2023-04-30T04:08:34.288Z,18.1827
2023-04-30T04:09:36.694Z,18.2817
2023-04-30T04:10:38.958Z,18.3332
2023-04-30T04:11:41.313Z,18.3572
2023-04-30T04:12:43.615Z,18.3614
2023-04-30T04:13:45.994Z,18.3798
2023-04-30T04:14:48.317Z,18.3643
2023-04-30T04:15:50.737Z,18.3433
2023-04-30T04:16:52.967Z,18.3372
2023-04-30T04:17:55.353Z,18.3642
2023-04-30T04:18:57.674Z,18.2423
2023-04-30T04:19:59.997Z,18.1444
2023-04-30T04:21:02.332Z,18.1411
2023-04-30T04:22:04.666Z,18.1409
2023-04-30T04:23:07.135Z,18.0782
2023-04-30T04:24:09.333Z,18.0365
2023-04-30T04:25:11.678Z,18.1126
2023-04-30T04:26:14.048Z,18.2258
2023-04-30T04:27:16.356Z,18.2808
2023-04-30T04:28:18.662Z,18.2690
2023-04-30T04:29:21.078Z,18.2387
2023-04-30T04:30:23.340Z,18.1855
2023-04-30T04:31:25.764Z,18.1175
2023-04-30T04:32:28.094Z,18.1658
2023-04-30T04:33:30.385Z,18.2150
2023-04-30T04:34:32.744Z,18.2202
2023-04-30T04:35:35.053Z,18.2323
2023-04-30T04:36:37.453Z,18.2684
2023-04-30T04:37:39.701Z,18.3027
2023-04-30T04:38:42.184Z,18.2489
2023-04-30T04:39:44.398Z,18.1770
2023-04-30T04:40:46.951Z,18.1250
2023-04-30T04:41:49.037Z,18.1895
2023-04-30T04:42:51.378Z,18.2950
2023-04-30T04:43:53.738Z,18.2812
2023-04-30T04:44:56.098Z,18.2036
2023-04-30T04:45:58.395Z,18.1639
2023-04-30T04:47:00.716Z,18.1600
2023-04-30T04:48:03.139Z,18.2270
2023-04-30T04:49:05.399Z,18.1909
2023-04-30T04:50:07.777Z,18.2150
2023-04-30T04:51:10.068Z,18.1783
2023-04-30T04:52:12.393Z,18.2160
2023-04-30T04:53:14.799Z,18.2251
2023-04-30T04:54:17.192Z,18.2052
2023-04-30T04:55:19.507Z,18.1175
2023-04-30T04:56:21.771Z,18.1245
2023-04-30T04:57:24.137Z,18.1142
2023-04-30T04:58:26.513Z,18.1183
2023-04-30T04:59:28.780Z,17.9645
2023-04-30T05:00:31.103Z,17.8438
2023-04-30T05:01:33.436Z,17.7764
2023-04-30T05:02:35.978Z,17.7194
2023-04-30T05:03:38.289Z,17.6825
2023-04-30T05:04:40.420Z,17.7229
2023-04-30T05:05:42.908Z,17.8387
2023-04-30T05:06:45.201Z,17.7497
2023-04-30T05:07:47.466Z,17.6263
2023-04-30T05:08:49.788Z,17.5076
2023-04-30T05:09:52.160Z,17.3154
2023-04-30T05:10:54.442Z,17.2656
2023-04-30T05:11:56.777Z,17.3129
2023-04-30T05:12:59.196Z,17.1662
2023-04-30T05:14:01.432Z,17.1010
2023-04-30T05:15:03.770Z,17.1282
2023-04-30T05:16:06.146Z,17.1398
2023-04-30T05:17:08.444Z,17.0941
2023-04-30T05:18:10.817Z,17.1411
2023-04-30T05:19:13.113Z,17.2475
2023-04-30T05:20:15.561Z,17.2626
2023-04-30T05:21:17.818Z,17.3194
2023-04-30T05:22:20.157Z,17.4435
2023-04-30T05:23:22.464Z,17.4966
2023-04-30T05:24:24.778Z,17.5431
2023-04-30T05:25:27.238Z,17.5815
2023-04-30T05:26:29.473Z,17.6714
2023-04-30T05:27:31.913Z,17.7711
2023-04-30T05:28:34.169Z,17.9099
2023-04-30T05:29:36.480Z,17.9354
2023-04-30T05:30:38.818Z,17.9062
2023-04-30T05:31:41.151Z,17.9115
2023-04-30T05:32:43.700Z,17.9441
2023-04-30T05:33:46.159Z,17.9508
2023-04-30T05:34:48.468Z,17.9639
2023-04-30T05:35:50.452Z,18.0007
2023-04-30T05:36:52.974Z,17.9946
2023-04-30T05:37:55.223Z,17.9972
2023-04-30T05:38:57.474Z,17.9882
2023-04-30T05:40:00.001Z,18.0367
2023-04-30T05:41:02.324Z,18.0087
2023-04-30T05:42:04.467Z,18.0201
2023-04-30T05:43:06.816Z,18.1402
2023-04-30T05:44:09.499Z,18.2022
2023-04-30T05:45:11.593Z,18.2375
2023-04-30T05:46:14.037Z,18.2376
2023-04-30T05:47:16.152Z,18.2148
2023-04-30T05:48:18.514Z,18.2019
2023-04-30T05:49:20.876Z,18.1462
2023-04-30T05:50:23.154Z,18.1863
2023-04-30T05:51:25.742Z,18.1515
2023-04-30T05:52:28.287Z,18.0776
2023-04-30T05:53:30.197Z,18.1432
2023-04-30T05:54:32.508Z,18.2403
2023-04-30T05:55:34.892Z,18.2862
2023-04-30T05:56:37.187Z,18.2863
2023-04-30T05:57:39.519Z,18.3090
2023-04-30T05:58:41.947Z,18.2854
2023-04-30T05:59:44.204Z,18.2514
2023-04-30T06:00:46.527Z,18.1679
2023-04-30T06:01:49.079Z,18.0885
2023-04-30T06:02:51.300Z,18.0297
2023-04-30T06:03:53.623Z,18.0184
2023-04-30T06:04:56.095Z,17.9097
2023-04-30T06:05:58.407Z,17.8402
2023-04-30T06:07:00.745Z,17.8972
2023-04-30T06:08:02.976Z,17.9641
2023-04-30T06:09:05.393Z,17.9861
2023-04-30T06:10:07.653Z,17.9427
2023-04-30T06:11:09.989Z,17.9859
2023-04-30T06:12:12.395Z,18.0176
2023-04-30T06:13:14.834Z,17.9749
2023-04-30T06:14:17.043Z,17.9663
2023-04-30T06:15:26.869Z,17.9956
2023-04-30T06:16:21.691Z,17.9528
2023-04-30T06:17:24.020Z,17.8569
2023-04-30T06:18:26.358Z,17.7800
2023-04-30T06:19:28.691Z,17.8151
2023-04-30T06:20:31.067Z,17.8532
2023-04-30T06:21:33.400Z,17.8662
2023-04-30T06:22:35.937Z,17.9820
2023-04-30T06:23:38.033Z,18.0026
2023-04-30T06:24:40.390Z,18.0021
2023-04-30T06:25:42.778Z,17.9697
2023-04-30T06:26:45.034Z,17.9564
2023-04-30T06:27:47.412Z,17.8674
2023-04-30T06:28:50.017Z,17.8393
2023-04-30T06:29:52.295Z,17.8273
2023-04-30T06:30:54.432Z,17.8107
2023-04-30T06:31:56.781Z,17.8369
2023-04-30T06:32:59.138Z,17.8132
2023-04-30T06:34:01.449Z,17.7845
2023-04-30T06:35:03.776Z,17.7741
2023-04-30T06:36:06.145Z,17.7212
2023-04-30T06:37:08.448Z,17.6464
2023-04-30T06:38:10.778Z,17.6970
2023-04-30T06:39:13.111Z,17.7745
2023-04-30T06:40:15.456Z,17.8045
2023-04-30T06:41:17.806Z,17.8712
2023-04-30T06:42:20.154Z,17.9312
2023-04-30T06:43:22.479Z,17.8863
2023-04-30T06:44:25.059Z,17.9168
2023-04-30T06:45:27.183Z,17.9413
2023-04-30T06:46:29.647Z,17.9720
2023-04-30T06:47:31.829Z,17.9625
2023-04-30T06:48:34.186Z,17.9147
2023-04-30T06:49:36.480Z,17.9130
2023-04-30T06:50:38.856Z,17.9989
2023-04-30T06:51:41.210Z,18.0115
2023-04-30T06:52:43.530Z,17.9744
2023-04-30T06:53:45.821Z,17.7938
2023-04-30T06:54:48.217Z,17.8189
2023-04-30T06:55:50.531Z,17.7661
2023-04-30T06:56:52.903Z,17.7772
2023-04-30T06:57:55.193Z,17.8436
2023-04-30T06:58:57.534Z,17.8306
2023-04-30T06:59:59.836Z,17.7991
2023-04-30T07:01:02.194Z,17.8166
2023-04-30T07:02:04.541Z,17.9143
2023-04-30T07:03:06.930Z,17.9942
2023-04-30T07:04:09.190Z,18.0836
2023-04-30T07:05:11.827Z,18.1278
2023-04-30T07:06:13.894Z,18.0973
2023-04-30T07:07:16.208Z,18.0741
2023-04-30T07:08:18.557Z,18.0657
2023-04-30T07:09:20.888Z,18.0095
2023-04-30T07:10:23.207Z,18.0279
2023-04-30T07:11:25.544Z,17.9992
2023-04-30T07:12:27.893Z,17.9755
2023-04-30T07:13:30.211Z,18.0043
2023-04-30T07:14:32.550Z,18.0444
2023-04-30T07:15:34.971Z,18.1081
2023-04-30T07:16:37.215Z,18.1510
2023-04-30T07:17:39.644Z,18.1991
2023-04-30T07:18:42.030Z,18.2878
2023-04-30T07:19:44.242Z,18.2733
2023-04-30T07:20:46.574Z,18.2496
2023-04-30T07:21:48.924Z,18.2696
2023-04-30T07:22:51.241Z,18.2979
2023-04-30T07:23:53.620Z,18.2992
2023-04-30T07:24:55.931Z,18.2584
2023-04-30T07:25:58.260Z,18.2626
2023-04-30T07:27:00.677Z,18.2415
2023-04-30T07:28:02.936Z,18.0795
2023-04-30T07:29:05.472Z,18.0443
2023-04-30T07:30:07.659Z,17.9666
2023-04-30T07:31:09.995Z,17.9091
2023-04-30T07:32:12.311Z,17.8625
2023-04-30T07:33:14.703Z,17.8167
2023-04-30T07:34:16.987Z,17.7853
2023-04-30T07:35:19.395Z,17.7971
2023-04-30T07:36:21.646Z,17.9350
2023-04-30T07:37:23.989Z,18.0415
2023-04-30T07:38:26.343Z,18.0552
2023-04-30T07:39:28.675Z,18.0367
2023-04-30T07:40:36.252Z,17.9927
2023-04-30T07:41:33.339Z,17.9537
2023-04-30T07:42:35.847Z,17.9221
2023-04-30T07:43:38.066Z,17.9679
2023-04-30T07:44:40.377Z,17.8594
2023-04-30T07:45:42.869Z,17.8544
2023-04-30T07:46:45.090Z,17.9281
2023-04-30T07:47:47.396Z,17.9770
2023-04-30T07:48:49.782Z,18.1023
2023-04-30T07:49:52.111Z,18.1959
2023-04-30T07:50:54.573Z,18.2282
2023-04-30T07:51:56.955Z,18.2605
2023-04-30T07:52:59.112Z,18.2635
2023-04-30T07:54:01.402Z,18.1982
2023-04-30T07:55:03.772Z,18.1540
2023-04-30T07:56:06.196Z,18.1528
2023-04-30T07:57:08.429Z,18.1077
2023-04-30T07:58:10.824Z,18.1496
2023-04-30T07:59:13.111Z,18.1676
2023-04-30T08:00:15.978Z,18.2884
2023-04-30T08:01:17.809Z,18.4038
2023-04-30T08:02:20.208Z,18.4783
2023-04-30T08:03:22.526Z,18.5273
2023-04-30T08:04:24.941Z,18.4707
2023-04-30T08:05:27.137Z,18.5046
2023-04-30T08:06:29.540Z,18.4944
2023-04-30T08:07:31.820Z,18.5500
2023-04-30T08:08:34.153Z,18.5980
2023-04-30T08:09:36.539Z,18.6389
2023-04-30T08:10:38.856Z,18.6520
2023-04-30T08:11:41.188Z,18.6366
2023-04-30T08:12:43.575Z,18.7218
2023-04-30T08:13:45.845Z,18.7869
2023-04-30T08:14:48.174Z,18.8916
2023-04-30T08:15:50.524Z,18.8782
2023-04-30T08:16:52.975Z,18.9103
2023-04-30T08:17:55.230Z,18.9681
2023-04-30T08:18:57.561Z,19.0115
2023-04-30T08:19:59.873Z,19.0687
2023-04-30T08:21:02.203Z,19.0739
2023-04-30T08:22:04.540Z,19.0540
2023-04-30T08:23:06.921Z,18.9963
2023-04-30T08:24:09.209Z,18.8570
2023-04-30T08:25:11.725Z,18.8355
2023-04-30T08:26:13.893Z,18.8122
2023-04-30T08:27:16.241Z,18.8361
2023-04-30T08:28:18.565Z,18.9516
2023-04-30T08:29:20.936Z,19.0363
2023-04-30T08:30:23.374Z,19.0592
2023-04-30T08:31:25.731Z,19.0821
2023-04-30T08:32:28.021Z,19.1530
2023-04-30T08:33:30.413Z,19.2274
2023-04-30T08:34:32.635Z,19.2382
2023-04-30T08:35:35.008Z,19.1351
2023-04-30T08:36:37.321Z,19.0958
2023-04-30T08:37:39.627Z,19.1526
2023-04-30T08:38:41.959Z,19.1261
2023-04-30T08:39:44.346Z,19.2241
2023-04-30T08:40:51.575Z,19.1982
2023-04-30T08:41:48.962Z,19.2204
2023-04-30T08:42:51.340Z,19.2813
2023-04-30T08:43:53.679Z,19.3551
2023-04-30T08:44:56.025Z,19.3303
2023-04-30T08:45:58.327Z,19.3936
2023-04-30T08:47:00.674Z,19.4724
2023-04-30T08:48:03.154Z,19.4859
2023-04-30T08:49:05.355Z,19.5270
2023-04-30T08:50:07.835Z,19.6016
2023-04-30T08:51:09.988Z,19.6595
2023-04-30T08:52:12.369Z,19.6910
2023-04-30T08:53:14.712Z,19.8265
2023-04-30T08:54:17.016Z,19.9144
2023-04-30T08:55:19.356Z,19.9494
2023-04-30T08:56:23.109Z,19.8617
2023-04-30T08:57:24.032Z,19.8536
2023-04-30T08:58:26.375Z,19.9386
2023-04-30T08:59:28.709Z,19.9770
2023-04-30T09:00:31.134Z,20.0546
2023-04-30T09:01:33.449Z,20.1854
2023-04-30T09:02:35.832Z,20.2721
2023-04-30T09:03:38.182Z,20.2134
2023-04-30T09:04:40.583Z,20.2614
2023-04-30T09:05:42.785Z,20.2319
2023-04-30T09:06:45.201Z,20.1909
2023-04-30T09:08:49.870Z,20.2515
2023-04-30T09:09:52.171Z,20.2893
2023-04-30T09:10:54.427Z,20.2860
2023-04-30T09:11:56.761Z,20.1993
2023-04-30T09:12:59.097Z,20.1859
2023-04-30T09:14:01.463Z,20.2009
2023-04-30T09:15:03.914Z,20.2842
2023-04-30T09:16:06.160Z,20.2935
2023-04-30T09:17:08.439Z,20.3637
2023-04-30T09:18:10.895Z,20.4645
2023-04-30T09:19:13.127Z,20.5566
2023-04-30T09:20:15.474Z,20.6906
2023-04-30T09:21:17.798Z,20.7360
2023-04-30T09:22:20.137Z,20.8611
2023-04-30T09:23:22.488Z,20.9140
2023-04-30T09:24:24.869Z,20.9051
2023-04-30T09:25:27.173Z,20.9686
2023-04-30T09:26:29.519Z,21.0128
2023-04-30T09:27:31.842Z,21.1414
2023-04-30T09:28:34.167Z,21.1777
2023-04-30T09:29:36.519Z,21.0690
2023-04-30T09:30:38.960Z,21.0113
2023-04-30T09:31:41.214Z,20.9739
2023-04-30T09:32:43.542Z,21.0265
2023-04-30T09:33:46.040Z,21.1376
2023-04-30T09:34:48.215Z,21.1521
2023-04-30T09:35:50.531Z,21.2124
2023-04-30T09:36:52.908Z,21.2097
2023-04-30T09:37:55.244Z,21.2397
2023-04-30T09:38:57.558Z,21.2558
2023-04-30T09:39:59.893Z,21.2219
2023-04-30T09:41:02.230Z,21.3067
2023-04-30T09:42:04.571Z,21.2800
2023-04-30T09:43:06.946Z,21.3572
2023-04-30T09:44:09.291Z,21.3950
2023-04-30T09:45:11.590Z,21.4358
2023-04-30T09:46:13.959Z,21.3481
2023-04-30T09:47:16.267Z,21.3591
2023-04-30T09:48:18.685Z,21.4096
2023-04-30T09:49:20.979Z,21.4741
2023-04-30T09:50:23.350Z,21.4939
2023-04-30T09:51:25.652Z,21.5446
2023-04-30T09:52:28.005Z,21.6349
2023-04-30T09:53:30.314Z,21.7984
2023-04-30T09:54:32.697Z,21.8355
2023-04-30T09:55:35.032Z,21.7593
2023-04-30T09:56:37.339Z,21.8003
2023-04-30T09:57:39.674Z,21.7764
2023-04-30T09:58:42.016Z,21.7587
2023-04-30T09:59:44.365Z,21.6587
2023-04-30T10:00:46.907Z,21.5223
2023-04-30T10:01:49.047Z,21.4557
2023-04-30T10:02:51.414Z,21.4570
2023-04-30T10:03:54.042Z,21.5074
2023-04-30T10:04:56.115Z,21.5970
2023-04-30T10:05:58.431Z,21.6840
2023-04-30T10:07:00.822Z,21.8557
2023-04-30T10:08:03.174Z,22.0752
2023-04-30T10:09:05.546Z,22.2511
2023-04-30T10:10:07.892Z,22.4554
2023-04-30T10:11:10.199Z,22.5638
2023-04-30T10:12:12.536Z,22.7552
2023-04-30T10:13:15.165Z,23.0108
2023-04-30T10:14:17.227Z,23.2329
2023-04-30T10:15:19.567Z,23.4171
2023-04-30T10:16:22.967Z,23.4628
2023-04-30T10:17:24.280Z,23.4330
2023-04-30T10:18:26.609Z,23.4190
2023-04-30T10:19:28.963Z,23.5501
2023-04-30T10:20:32.024Z,23.7453
2023-04-30T10:21:33.629Z,23.9283
2023-04-30T10:22:36.020Z,24.1224
2023-04-30T10:23:38.328Z,24.3403
2023-04-30T10:24:40.670Z,24.5722
2023-04-30T10:25:43.076Z,24.7573
2023-04-30T10:26:45.375Z,24.8921
2023-04-30T10:27:47.704Z,24.9859
2023-04-30T10:28:50.120Z,24.9080
2023-04-30T10:29:52.438Z,24.8337
2023-04-30T10:30:54.773Z,24.9959
2023-04-30T10:31:57.155Z,25.2205
2023-04-30T10:32:59.500Z,25.3713
2023-04-30T10:34:01.789Z,25.5109
2023-04-30T10:35:04.166Z,25.7486
2023-04-30T10:36:06.515Z,25.9383
2023-04-30T10:37:08.939Z,26.0299
2023-04-30T10:38:11.274Z,26.0672
2023-04-30T10:39:13.580Z,26.1597
2023-04-30T10:40:15.855Z,26.2474
2023-04-30T10:41:18.208Z,26.2874
2023-04-30T10:42:20.545Z,26.2797
2023-04-30T10:43:22.949Z,26.1645
2023-04-30T10:44:25.240Z,25.9629
2023-04-30T10:45:27.589Z,25.7834
2023-04-30T10:46:29.965Z,25.6447
2023-04-30T10:47:32.314Z,25.5338
2023-04-30T10:48:34.625Z,25.3810
2023-04-30T10:49:36.975Z,25.1909
2023-04-30T10:50:39.301Z,25.1862
2023-04-30T10:51:41.699Z,25.0410
2023-04-30T10:52:43.989Z,24.9022
2023-04-30T10:53:46.348Z,24.8859
2023-04-30T10:54:48.699Z,24.8511
2023-04-30T10:55:51.037Z,24.9013
2023-04-30T10:56:53.406Z,24.7732
2023-04-30T10:57:55.886Z,24.6575
2023-04-30T10:58:58.072Z,24.6105
2023-04-30T11:00:00.419Z,24.5857
2023-04-30T11:01:02.922Z,24.6152
2023-04-30T11:02:05.120Z,24.6396
2023-04-30T11:03:07.841Z,24.5765
2023-04-30T11:04:09.790Z,24.5326
2023-04-30T11:05:12.817Z,24.4057
2023-04-30T11:06:14.552Z,24.5094
2023-04-30T11:07:16.888Z,24.6070
2023-04-30T11:08:19.165Z,24.6616
2023-04-30T11:09:21.502Z,24.6530
2023-04-30T11:10:23.920Z,24.5410
2023-04-30T11:11:26.191Z,24.3693
2023-04-30T11:12:28.728Z,24.2089
2023-04-30T11:13:30.925Z,24.0800
2023-04-30T11:14:33.218Z,24.0604
2023-04-30T11:15:35.635Z,24.0799
2023-04-30T11:16:37.955Z,24.1617
2023-04-30T11:17:40.323Z,24.1844
2023-04-30T11:18:42.601Z,24.2504
2023-04-30T11:19:44.934Z,24.3598
2023-04-30T11:20:47.314Z,24.4402
2023-04-30T11:21:49.685Z,24.2523
2023-04-30T11:22:52.017Z,24.0513
2023-04-30T11:23:54.426Z,23.9660
2023-04-30T11:24:56.644Z,24.0012
2023-04-30T11:25:58.989Z,24.0797
2023-04-30T11:27:01.330Z,24.0438
2023-04-30T11:28:03.692Z,23.9783
2023-04-30T11:29:06.225Z,23.8965
2023-04-30T11:30:08.389Z,23.7012
2023-04-30T11:31:10.719Z,23.4923
2023-04-30T11:32:13.046Z,23.3755
2023-04-30T11:33:15.402Z,23.4345
2023-04-30T11:34:17.836Z,23.4721
2023-04-30T11:35:20.091Z,23.3909
2023-04-30T11:36:22.421Z,23.3748
2023-04-30T11:37:24.750Z,23.2850
2023-04-30T11:38:27.139Z,23.2405
2023-04-30T11:39:29.440Z,23.2765
2023-04-30T11:40:31.779Z,23.2396
2023-04-30T11:41:34.111Z,23.2612
2023-04-30T11:42:36.558Z,23.3083
2023-04-30T11:43:38.863Z,23.3721
2023-04-30T11:44:41.174Z,23.4294
2023-04-30T11:45:43.475Z,23.3268
2023-04-30T11:46:45.893Z,23.2725
2023-04-30T11:47:48.303Z,23.3150
2023-04-30T11:48:50.505Z,23.2869
2023-04-30T11:49:53.295Z,23.3173
2023-04-30T11:50:55.213Z,23.2602
2023-04-30T11:51:57.545Z,23.3493
2023-04-30T11:52:59.854Z,23.3158
2023-04-30T11:54:02.335Z,23.1321
2023-04-30T11:55:04.518Z,23.1705
2023-04-30T11:56:06.947Z,23.1292
2023-04-30T11:57:09.192Z,23.0905
2023-04-30T11:58:11.617Z,23.2010
2023-04-30T11:59:13.888Z,23.2575
2023-04-30T12:00:16.282Z,23.3017
2023-04-30T12:01:18.571Z,23.2912
2023-04-30T12:02:21.023Z,23.2934
2023-04-30T12:03:23.302Z,23.3271
2023-04-30T12:04:25.623Z,23.2105
2023-04-30T12:05:27.970Z,23.1350
2023-04-30T12:06:30.362Z,23.0790
2023-04-30T12:07:32.602Z,23.0770
2023-04-30T12:08:34.979Z,23.0170
2023-04-30T12:09:37.292Z,23.0732
2023-04-30T12:10:39.632Z,23.0994
2023-04-30T12:11:41.987Z,23.1454
2023-04-30T12:12:44.329Z,23.1714
2023-04-30T12:13:46.657Z,23.2384
2023-04-30T12:14:49.167Z,23.3613
2023-04-30T12:15:51.359Z,23.4602
2023-04-30T12:16:53.721Z,23.5732
2023-04-30T12:17:56.362Z,23.6042
2023-04-30T12:18:58.398Z,23.6337
2023-04-30T12:20:00.715Z,23.7424
2023-04-30T12:21:03.079Z,23.8205
2023-04-30T12:22:05.408Z,23.8032
2023-04-30T12:23:07.797Z,23.7874
2023-04-30T12:24:10.096Z,23.7195
2023-04-30T12:25:12.427Z,23.5069
2023-04-30T12:26:14.981Z,23.4412
2023-04-30T12:27:17.136Z,23.5634
2023-04-30T12:28:19.457Z,23.6076
2023-04-30T12:29:21.805Z,23.4823
2023-04-30T12:30:24.701Z,23.4858
2023-04-30T12:31:26.492Z,23.5218
2023-04-30T12:32:28.968Z,23.4902
2023-04-30T12:33:31.165Z,23.4997
2023-04-30T12:34:33.979Z,23.4875